createdAt,value
2023-01-22T00:01:17.473Z,-1.00
2023-01-22T00:03:46.821Z,-1.00
2023-01-22T00:06:15.569Z,-1.00
2023-01-22T00:08:44.274Z,-1.00
2023-01-22T00:11:13.825Z,-1.00
2023-01-22T00:13:42.404Z,-1.00
2023-01-22T00:16:13.220Z,-0.90
2023-01-22T00:18:41.574Z,-0.90
2023-01-22T00:21:09.637Z,-1.00
2023-01-22T00:23:38.700Z,-0.90
2023-01-22T00:26:10.986Z,-0.90
2023-01-22T00:28:41.699Z,-0.90
2023-01-22T00:31:11.350Z,-0.90
2023-01-22T00:33:40.127Z,-0.90
2023-01-22T00:36:09.782Z,-0.90
2023-01-22T00:38:37.874Z,-0.80
2023-01-22T00:41:07.806Z,-0.90
2023-01-22T00:43:38.628Z,-0.80
2023-01-22T00:46:08.916Z,-0.80
2023-01-22T00:48:37.487Z,-0.80
2023-01-22T00:51:06.030Z,-0.70
2023-01-22T00:53:34.090Z,-0.70
2023-01-22T00:56:03.265Z,-0.80
2023-01-22T00:58:31.475Z,-0.80
2023-01-22T01:01:01.871Z,-0.70
2023-01-22T01:03:32.071Z,-0.70
2023-01-22T01:06:01.901Z,-0.70
2023-01-22T01:08:32.134Z,-0.70
2023-01-22T01:11:01.997Z,-0.70
2023-01-22T01:13:32.092Z,-0.60
2023-01-22T01:16:01.797Z,-0.60
2023-01-22T01:18:32.049Z,-0.60
2023-01-22T01:21:01.180Z,-0.60
2023-01-22T01:23:29.836Z,-0.60
2023-01-22T01:25:58.304Z,-0.60
2023-01-22T01:28:28.799Z,-0.60
2023-01-22T01:30:57.054Z,-0.60
2023-01-22T01:33:25.116Z,-0.60
2023-01-22T01:36:01.676Z,-0.50
2023-01-22T01:38:29.865Z,-0.60
2023-01-22T01:40:57.926Z,-0.50
2023-01-22T01:43:26.625Z,-0.50
2023-01-22T01:45:55.772Z,-0.50
2023-01-22T01:48:29.612Z,-0.50
2023-01-22T01:51:03.658Z,-0.50
2023-01-22T01:53:32.200Z,-0.50
2023-01-22T01:56:02.973Z,-0.50
2023-01-22T01:58:34.461Z,-0.50
2023-01-22T02:01:07.591Z,-0.50
2023-01-22T02:03:35.704Z,-0.50
2023-01-22T02:06:05.516Z,-0.40
2023-01-22T02:08:33.768Z,-0.40
2023-01-22T02:11:01.945Z,-0.40
2023-01-22T02:13:33.504Z,-0.40
2023-01-22T02:16:01.636Z,-0.50
2023-01-22T02:18:29.733Z,-0.40
2023-01-22T02:21:01.946Z,-0.40
2023-01-22T02:23:32.506Z,-0.40
2023-01-22T02:26:01.705Z,-0.40
2023-01-22T02:28:29.740Z,-0.40
2023-01-22T02:30:57.949Z,-0.40
2023-01-22T02:33:25.976Z,-0.30
2023-01-22T02:35:54.053Z,-0.40
2023-01-22T02:38:23.459Z,-0.40
2023-01-22T02:40:51.577Z,-0.40
2023-01-22T02:43:19.819Z,-0.40
2023-01-22T02:45:47.938Z,-0.40
2023-01-22T02:48:16.082Z,-0.30
2023-01-22T02:50:45.171Z,-0.30
2023-01-22T02:53:13.607Z,-0.30
2023-01-22T02:55:45.064Z,-0.30
2023-01-22T02:58:13.251Z,-0.30
2023-01-22T03:00:41.352Z,-0.30
2023-01-22T03:03:15.554Z,-0.30
2023-01-22T03:05:49.714Z,-0.30
2023-01-22T03:08:18.635Z,-0.30
2023-01-22T03:10:48.267Z,-0.30
2023-01-22T03:13:34.023Z,-0.30
2023-01-22T03:16:22.548Z,-0.30
2023-01-22T03:19:08.137Z,-0.30
2023-01-22T03:21:36.708Z,-0.30
2023-01-22T03:24:05.139Z,-0.20
2023-01-22T03:26:34.679Z,-0.30
2023-01-22T03:29:02.877Z,-0.20
2023-01-22T03:31:31.309Z,-0.20
2023-01-22T03:33:59.526Z,-0.10
2023-01-22T03:36:27.920Z,-0.20
2023-01-22T03:38:56.307Z,-0.20
2023-01-22T03:41:24.534Z,-0.20
2023-01-22T03:43:53.991Z,-0.20
2023-01-22T03:46:22.434Z,-0.20
2023-01-22T03:48:52.512Z,-0.20
2023-01-22T03:51:21.073Z,-0.20
2023-01-22T03:53:50.192Z,-0.20
2023-01-22T03:56:20.101Z,-0.20
2023-01-22T03:58:48.598Z,-0.20
2023-01-22T04:01:20.332Z,-0.20
2023-01-22T04:03:48.800Z,-0.10
2023-01-22T04:06:17.563Z,-0.20
2023-01-22T04:08:47.007Z,-0.10
2023-01-22T04:11:15.553Z,-0.10
2023-01-22T04:13:44.921Z,-0.10
2023-01-22T04:16:14.388Z,-0.10
2023-01-22T04:18:44.194Z,-0.10
2023-01-22T04:21:13.051Z,-0.10
2023-01-22T04:23:41.112Z,-0.10
2023-01-22T04:26:09.207Z,-0.20
2023-01-22T04:28:37.276Z,-0.20
2023-01-22T04:31:05.761Z,-0.10
2023-01-22T04:33:33.853Z,-0.10
2023-01-22T04:36:03.389Z,-0.10
2023-01-22T04:38:31.441Z,0.00
2023-01-22T04:40:59.462Z,0.00
2023-01-22T04:43:27.566Z,0.00
2023-01-22T04:45:55.618Z,-0.10
2023-01-22T04:48:23.686Z,0.00
2023-01-22T04:50:51.741Z,-0.10
2023-01-22T04:53:21.152Z,-0.10
2023-01-22T04:55:49.179Z,-0.20
2023-01-22T04:58:17.260Z,0.00
2023-01-22T05:00:45.283Z,0.00
2023-01-22T05:03:13.741Z,0.00
2023-01-22T05:05:41.773Z,0.00
2023-01-22T05:08:09.846Z,0.00
2023-01-22T05:10:39.227Z,0.00
2023-01-22T05:13:08.376Z,0.00
2023-01-22T05:15:36.721Z,0.00
2023-01-22T05:18:04.948Z,0.00
2023-01-22T05:20:32.963Z,0.00
2023-01-22T05:23:00.975Z,-0.10
2023-01-22T05:25:29.054Z,0.00
2023-01-22T05:27:58.448Z,0.00
2023-01-22T05:30:26.526Z,0.00
2023-01-22T05:32:57.361Z,0.00
2023-01-22T05:35:25.651Z,0.00
2023-01-22T05:37:53.684Z,0.00
2023-01-22T05:40:21.782Z,0.10
2023-01-22T05:42:49.827Z,0.00
2023-01-22T05:45:19.314Z,0.00
2023-01-22T05:47:53.273Z,0.10
2023-01-22T05:50:21.511Z,0.10
2023-01-22T05:52:54.566Z,0.10
2023-01-22T05:55:23.007Z,0.00
2023-01-22T05:57:51.039Z,0.00
2023-01-22T06:00:21.178Z,0.00
2023-01-22T06:02:49.348Z,0.10
2023-01-22T06:05:17.616Z,0.10
2023-01-22T06:07:45.721Z,0.10
2023-01-22T06:10:13.758Z,0.10
2023-01-22T06:12:41.793Z,0.00
2023-01-22T06:15:11.033Z,0.10
2023-01-22T06:17:40.482Z,0.10
2023-01-22T06:20:10.757Z,0.10
2023-01-22T06:22:38.783Z,0.00
2023-01-22T06:25:09.428Z,0.00
2023-01-22T06:27:37.491Z,0.00
2023-01-22T06:30:06.351Z,0.00
2023-01-22T06:32:34.368Z,0.00
2023-01-22T06:35:03.788Z,0.00
2023-01-22T06:37:31.839Z,0.10
2023-01-22T06:39:59.928Z,0.10
2023-01-22T06:42:27.979Z,0.10
2023-01-22T06:44:56.020Z,0.10
2023-01-22T06:47:24.104Z,0.20
2023-01-22T06:49:52.128Z,0.10
2023-01-22T06:52:21.604Z,0.10
2023-01-22T06:54:49.647Z,0.00
2023-01-22T06:57:17.909Z,0.00
2023-01-22T06:59:46.021Z,0.10
2023-01-22T07:02:17.823Z,0.20
2023-01-22T07:04:46.235Z,0.20
2023-01-22T07:07:14.845Z,0.20
2023-01-22T07:09:44.251Z,0.20
2023-01-22T07:12:12.347Z,0.10
2023-01-22T07:14:40.397Z,0.20
2023-01-22T07:17:08.494Z,0.10
2023-01-22T07:19:36.554Z,0.20
2023-01-22T07:22:04.604Z,0.20
2023-01-22T07:24:32.727Z,0.20
2023-01-22T07:27:03.518Z,0.20
2023-01-22T07:29:31.579Z,0.20
2023-01-22T07:31:59.703Z,0.20
2023-01-22T07:34:27.740Z,0.30
2023-01-22T07:36:55.792Z,0.30
2023-01-22T07:39:23.847Z,0.30
2023-01-22T07:41:51.900Z,0.30
2023-01-22T07:44:21.283Z,0.30
2023-01-22T07:46:49.365Z,0.30
2023-01-22T07:49:17.409Z,0.30
2023-01-22T07:51:45.428Z,0.30
2023-01-22T07:54:13.571Z,0.30
2023-01-22T07:56:41.675Z,0.40
2023-01-22T07:59:09.693Z,0.40
2023-01-22T08:01:39.163Z,0.40
2023-01-22T08:04:07.602Z,0.60
2023-01-22T08:06:35.662Z,0.60
2023-01-22T08:09:03.690Z,0.60
2023-01-22T08:11:31.750Z,0.60
2023-01-22T08:13:59.812Z,0.60
2023-01-22T08:16:27.979Z,0.70
2023-01-22T08:18:58.681Z,0.70
2023-01-22T08:21:26.774Z,0.80
2023-01-22T08:23:54.825Z,0.80
2023-01-22T08:26:22.991Z,0.80
2023-01-22T08:28:51.082Z,0.80
2023-01-22T08:31:27.457Z,0.80
2023-01-22T08:33:59.466Z,0.80
2023-01-22T08:36:27.764Z,0.80
2023-01-22T08:38:56.265Z,0.80
2023-01-22T08:41:24.774Z,0.80
2023-01-22T08:43:53.296Z,0.80
2023-01-22T08:46:21.661Z,0.80
2023-01-22T08:48:50.783Z,0.80
2023-01-22T08:51:22.689Z,0.80
2023-01-22T08:53:51.070Z,0.90
2023-01-22T08:56:19.156Z,0.90
2023-01-22T08:58:50.144Z,1.00
2023-01-22T09:01:19.136Z,1.10
2023-01-22T09:03:48.739Z,1.10
2023-01-22T09:06:16.807Z,1.10
2023-01-22T09:08:46.206Z,1.10
2023-01-22T09:11:14.333Z,1.10
2023-01-22T09:13:42.394Z,1.00
2023-01-22T09:16:11.051Z,1.00
2023-01-22T09:18:40.032Z,1.10
2023-01-22T09:21:08.416Z,1.10
2023-01-22T09:23:36.493Z,1.00
2023-01-22T09:26:06.156Z,1.00
2023-01-22T09:28:36.081Z,1.10
2023-01-22T09:31:05.035Z,1.10
2023-01-22T09:33:33.436Z,1.20
2023-01-22T09:36:09.611Z,1.20
2023-01-22T09:38:41.160Z,1.20
2023-01-22T09:41:18.943Z,1.20
2023-01-22T09:43:51.831Z,1.20
2023-01-22T09:46:26.403Z,1.30
2023-01-22T09:48:58.975Z,1.40
2023-01-22T09:51:27.614Z,1.40
2023-01-22T09:54:04.798Z,1.30
2023-01-22T09:56:41.527Z,1.40
2023-01-22T09:59:16.772Z,1.40
2023-01-22T10:01:48.370Z,1.40
2023-01-22T10:04:33.744Z,1.40
2023-01-22T10:07:04.691Z,1.40
2023-01-22T10:09:34.531Z,1.40
2023-01-22T10:12:13.056Z,1.40
2023-01-22T10:14:43.071Z,1.30
2023-01-22T10:17:19.881Z,1.40
2023-01-22T10:19:51.502Z,1.40
2023-01-22T10:22:22.380Z,1.50
2023-01-22T10:24:50.926Z,1.50
2023-01-22T10:27:23.177Z,1.60
2023-01-22T10:30:01.596Z,1.60
2023-01-22T10:32:31.028Z,1.60
2023-01-22T10:35:05.055Z,1.60
2023-01-22T10:37:44.522Z,1.60
2023-01-22T10:40:23.618Z,1.70
2023-01-22T10:43:08.065Z,1.60
2023-01-22T10:45:36.149Z,1.50
2023-01-22T10:48:13.749Z,1.60
2023-01-22T10:50:42.515Z,1.50
2023-01-22T10:53:24.696Z,1.50
2023-01-22T10:55:55.296Z,1.60
2023-01-22T10:58:28.927Z,1.70
2023-01-22T11:00:59.249Z,1.80
2023-01-22T11:03:32.988Z,1.70
2023-01-22T11:06:05.459Z,1.70
2023-01-22T11:08:43.694Z,1.70
2023-01-22T11:11:14.092Z,1.70
2023-01-22T11:13:53.161Z,1.70
2023-01-22T11:16:22.930Z,1.70
2023-01-22T11:18:57.079Z,1.60
2023-01-22T11:21:31.157Z,1.60
2023-01-22T11:24:04.815Z,1.70
2023-01-22T11:26:48.440Z,1.70
2023-01-22T11:29:31.931Z,1.70
2023-01-22T11:32:16.312Z,1.70
2023-01-22T11:34:56.228Z,1.70
2023-01-22T11:37:36.206Z,1.60
2023-01-22T11:40:18.770Z,1.60
2023-01-22T11:43:03.527Z,1.60
2023-01-22T11:45:52.782Z,1.50
2023-01-22T11:48:36.102Z,1.50
2023-01-22T11:51:16.525Z,1.50
2023-01-22T11:53:58.835Z,1.50
2023-01-22T11:56:48.563Z,1.50
2023-01-22T11:59:24.414Z,1.60
2023-01-22T12:02:11.599Z,1.60
2023-01-22T12:04:53.714Z,1.60
2023-01-22T12:07:36.638Z,1.70
2023-01-22T12:10:27.127Z,1.80
2023-01-22T12:13:04.150Z,1.80
2023-01-22T12:15:43.478Z,1.90
2023-01-22T12:18:48.350Z,1.90
2023-01-22T12:21:27.429Z,1.90
2023-01-22T12:24:00.439Z,1.90
2023-01-22T12:26:35.163Z,1.90
2023-01-22T12:29:11.972Z,1.90
2023-01-22T12:31:44.721Z,1.90
2023-01-22T12:34:20.152Z,1.90
2023-01-22T12:36:48.945Z,1.80
2023-01-22T12:39:26.888Z,1.80
2023-01-22T12:42:05.628Z,1.90
2023-01-22T12:44:48.565Z,1.80
2023-01-22T12:47:22.199Z,2.00
2023-01-22T12:49:53.741Z,1.80
2023-01-22T12:52:35.466Z,1.90
2023-01-22T12:55:06.163Z,1.90
2023-01-22T12:57:39.872Z,1.90
2023-01-22T13:00:23.727Z,2.10
2023-01-22T13:02:52.326Z,2.10
2023-01-22T13:05:37.842Z,2.10
2023-01-22T13:08:08.727Z,2.00
2023-01-22T13:10:38.114Z,1.90
2023-01-22T13:13:22.857Z,1.80
2023-01-22T13:15:55.295Z,1.90
2023-01-22T13:18:27.492Z,1.90
2023-01-22T13:21:07.069Z,1.80
2023-01-22T13:23:37.683Z,1.80
2023-01-22T13:26:06.048Z,1.80
2023-01-22T13:28:34.531Z,1.70
2023-01-22T13:31:05.695Z,1.70
2023-01-22T13:33:34.148Z,1.60
2023-01-22T13:36:10.914Z,1.60
2023-01-22T13:38:39.102Z,1.60
2023-01-22T13:41:13.023Z,1.60
2023-01-22T13:43:42.419Z,1.60
2023-01-22T13:46:14.865Z,1.60
2023-01-22T13:48:43.136Z,1.60
2023-01-22T13:51:18.750Z,1.60
2023-01-22T13:53:51.061Z,1.60
2023-01-22T13:56:22.643Z,1.50
2023-01-22T13:58:51.440Z,1.60
2023-01-22T14:01:30.507Z,1.50
2023-01-22T14:04:02.856Z,1.50
2023-01-22T14:06:43.126Z,1.50
2023-01-22T14:09:11.218Z,1.50
2023-01-22T14:11:40.098Z,1.50
2023-01-22T14:14:17.135Z,1.50
2023-01-22T14:16:45.516Z,1.40
2023-01-22T14:19:13.853Z,1.50
2023-01-22T14:21:43.464Z,1.50
2023-01-22T14:24:11.727Z,1.40
2023-01-22T14:26:39.914Z,1.30
2023-01-22T14:29:08.598Z,1.40
2023-01-22T14:31:36.743Z,1.40
2023-01-22T14:34:05.167Z,1.50
2023-01-22T14:36:33.272Z,1.50
2023-01-22T14:39:02.712Z,1.40
2023-01-22T14:41:31.398Z,1.30
2023-01-22T14:43:59.498Z,1.30
2023-01-22T14:46:27.548Z,1.40
2023-01-22T14:48:55.713Z,1.40
2023-01-22T14:51:23.742Z,1.40
2023-01-22T14:53:51.808Z,1.40
2023-01-22T14:56:21.402Z,1.40
2023-01-22T14:58:50.221Z,1.30
2023-01-22T15:01:20.249Z,1.40
2023-01-22T15:03:48.948Z,1.40
2023-01-22T15:06:17.036Z,1.40
2023-01-22T15:08:47.604Z,1.40
2023-01-22T15:11:15.658Z,1.40
2023-01-22T15:13:45.076Z,1.40
2023-01-22T15:16:13.531Z,1.40
2023-01-22T15:18:42.012Z,1.40
2023-01-22T15:21:11.045Z,1.40
2023-01-22T15:23:39.123Z,1.40
2023-01-22T15:26:22.878Z,1.40
2023-01-22T15:28:52.288Z,1.40
2023-01-22T15:31:20.419Z,1.40
2023-01-22T15:33:48.566Z,1.40
2023-01-22T15:36:16.627Z,1.30
2023-01-22T15:38:44.676Z,1.30
2023-01-22T15:41:21.231Z,1.40
2023-01-22T15:43:50.992Z,1.40
2023-01-22T15:46:21.588Z,1.30
2023-01-22T15:48:49.896Z,1.30
2023-01-22T15:51:18.827Z,1.20
2023-01-22T15:53:49.953Z,1.20
2023-01-22T15:56:18.421Z,1.20
2023-01-22T15:58:46.761Z,1.20
2023-01-22T16:01:14.876Z,1.30
2023-01-22T16:03:44.304Z,1.30
2023-01-22T16:06:14.372Z,1.30
2023-01-22T16:08:43.771Z,1.30
2023-01-22T16:11:12.662Z,1.30
2023-01-22T16:13:41.327Z,1.30
2023-01-22T16:16:16.351Z,1.30
2023-01-22T16:18:46.594Z,1.30
2023-01-22T16:21:16.112Z,1.30
2023-01-22T16:23:45.920Z,1.40
2023-01-22T16:26:17.388Z,1.30
2023-01-22T16:28:46.279Z,1.40
2023-01-22T16:31:16.823Z,1.30
2023-01-22T16:33:48.429Z,1.30
2023-01-22T16:36:18.331Z,1.30
2023-01-22T16:38:46.547Z,1.40
2023-01-22T16:41:27.953Z,1.40
2023-01-22T16:43:58.593Z,1.40
2023-01-22T16:46:28.922Z,1.30
2023-01-22T16:49:00.949Z,1.30
2023-01-22T16:51:34.447Z,1.30
2023-01-22T16:54:02.504Z,1.40
2023-01-22T16:56:30.533Z,1.40
2023-01-22T16:58:58.933Z,1.30
2023-01-22T17:01:28.314Z,1.30
2023-01-22T17:03:56.772Z,1.30
2023-01-22T17:06:28.608Z,1.30
2023-01-22T17:08:56.732Z,1.60
2023-01-22T17:11:25.234Z,1.60
2023-01-22T17:13:53.632Z,1.50
2023-01-22T17:16:21.768Z,1.40
2023-01-22T17:18:49.768Z,1.40
2023-01-22T17:21:19.913Z,1.40
2023-01-22T17:23:49.338Z,1.40
2023-01-22T17:26:18.392Z,1.40
2023-01-22T17:28:46.441Z,1.40
2023-01-22T17:31:16.499Z,1.40
2023-01-22T17:33:45.047Z,1.30
2023-01-22T17:36:15.008Z,1.20
2023-01-22T17:38:43.922Z,1.30
2023-01-22T17:41:16.053Z,1.30
2023-01-22T17:43:46.020Z,1.40
2023-01-22T17:46:15.863Z,1.30
2023-01-22T17:48:44.764Z,1.30
2023-01-22T17:51:15.809Z,1.20
2023-01-22T17:53:45.375Z,1.20
2023-01-22T17:56:16.425Z,1.30
2023-01-22T17:58:47.047Z,1.30
2023-01-22T18:01:16.406Z,1.30
2023-01-22T18:03:45.293Z,1.40
2023-01-22T18:06:14.018Z,1.40
2023-01-22T18:08:42.528Z,1.40
2023-01-22T18:11:13.003Z,1.40
2023-01-22T18:13:42.924Z,1.40
2023-01-22T18:16:13.840Z,1.40
2023-01-22T18:18:43.401Z,1.40
2023-01-22T18:21:14.224Z,1.40
2023-01-22T18:23:42.300Z,1.40
2023-01-22T18:26:10.535Z,1.40
2023-01-22T18:28:39.004Z,1.30
2023-01-22T18:31:10.840Z,1.30
2023-01-22T18:33:39.546Z,1.30
2023-01-22T18:36:12.336Z,1.30
2023-01-22T18:38:40.735Z,1.30
2023-01-22T18:41:11.467Z,1.30
2023-01-22T18:43:41.163Z,1.30
2023-01-22T18:46:12.932Z,1.20
2023-01-22T18:48:42.586Z,1.20
2023-01-22T18:51:13.293Z,1.20
2023-01-22T18:53:42.435Z,1.30
2023-01-22T18:56:13.105Z,1.30
2023-01-22T18:58:44.406Z,1.20
2023-01-22T19:01:15.951Z,1.30
2023-01-22T19:03:46.543Z,1.20
2023-01-22T19:06:16.657Z,1.30
2023-01-22T19:08:46.039Z,1.20
2023-01-22T19:11:15.217Z,1.30
2023-01-22T19:13:44.905Z,1.30
2023-01-22T19:16:17.306Z,1.30
2023-01-22T19:18:47.596Z,1.20
2023-01-22T19:21:17.431Z,1.20
2023-01-22T19:23:46.339Z,1.20
2023-01-22T19:26:16.995Z,1.20
2023-01-22T19:28:46.215Z,1.30
2023-01-22T19:31:20.808Z,1.30
2023-01-22T19:33:50.800Z,1.30
2023-01-22T19:36:19.503Z,1.30
2023-01-22T19:38:47.624Z,1.30
2023-01-22T19:41:16.110Z,1.30
2023-01-22T19:43:44.353Z,1.30
2023-01-22T19:46:14.865Z,1.30
2023-01-22T19:48:44.308Z,1.30
2023-01-22T19:51:17.645Z,1.20
2023-01-22T19:53:47.753Z,1.20
2023-01-22T19:56:18.564Z,1.20
2023-01-22T19:58:46.911Z,1.20
2023-01-22T20:01:16.654Z,1.30
2023-01-22T20:03:46.329Z,1.20
2023-01-22T20:06:16.168Z,1.30
2023-01-22T20:08:45.445Z,1.30
2023-01-22T20:11:14.751Z,1.20
2023-01-22T20:13:43.796Z,1.20
2023-01-22T20:16:19.165Z,1.20
2023-01-22T20:18:48.927Z,1.30
2023-01-22T20:21:18.506Z,1.30
2023-01-22T20:23:47.064Z,1.30
2023-01-22T20:26:17.049Z,1.30
2023-01-22T20:28:45.458Z,1.40
2023-01-22T20:31:15.940Z,1.50
2023-01-22T20:33:44.483Z,1.50
2023-01-22T20:36:15.193Z,1.50
2023-01-22T20:38:43.648Z,1.50
2023-01-22T20:41:11.720Z,1.40
2023-01-22T20:43:41.257Z,1.40
2023-01-22T20:46:12.770Z,1.40
2023-01-22T20:48:41.772Z,1.30
2023-01-22T20:51:18.600Z,1.30
2023-01-22T20:53:48.199Z,1.30
2023-01-22T20:56:17.576Z,1.30
2023-01-22T20:58:45.960Z,1.30
2023-01-22T21:01:15.922Z,1.30
2023-01-22T21:03:45.157Z,1.60
2023-01-22T21:06:18.790Z,1.60
2023-01-22T21:08:51.549Z,1.60
2023-01-22T21:11:21.975Z,1.50
2023-01-22T21:13:52.420Z,1.40
2023-01-22T21:16:26.236Z,1.40
2023-01-22T21:18:56.262Z,1.50
2023-01-22T21:21:26.617Z,1.40
2023-01-22T21:23:56.488Z,1.30
2023-01-22T21:26:26.992Z,1.30
2023-01-22T21:28:57.342Z,1.30
2023-01-22T21:31:26.367Z,1.20
2023-01-22T21:34:02.664Z,1.30
2023-01-22T21:36:35.224Z,1.30
2023-01-22T21:39:04.280Z,1.40
2023-01-22T21:41:33.233Z,1.50
2023-01-22T21:44:19.485Z,1.60
2023-01-22T21:46:48.750Z,1.60
2023-01-22T21:49:20.569Z,1.60
2023-01-22T21:51:52.463Z,1.50
2023-01-22T21:54:23.626Z,1.50
2023-01-22T21:56:53.118Z,1.60
2023-01-22T21:59:21.944Z,1.70
2023-01-22T22:01:53.565Z,1.70
2023-01-22T22:04:23.510Z,1.70
2023-01-22T22:06:53.645Z,1.80
2023-01-22T22:09:24.822Z,1.70
2023-01-22T22:11:56.168Z,1.70
2023-01-22T22:14:25.186Z,1.60
2023-01-22T22:16:54.248Z,1.60
2023-01-22T22:19:23.991Z,1.60
2023-01-22T22:21:54.989Z,1.60
2023-01-22T22:24:24.276Z,1.60
2023-01-22T22:26:53.120Z,1.60
2023-01-22T22:29:21.757Z,1.50
2023-01-22T22:31:50.173Z,1.50
2023-01-22T22:34:18.792Z,1.40
2023-01-22T22:36:46.857Z,1.40
2023-01-22T22:39:16.316Z,1.40
2023-01-22T22:41:44.468Z,1.40
2023-01-22T22:44:13.311Z,1.40
2023-01-22T22:46:41.855Z,1.40
2023-01-22T22:49:14.377Z,1.40
2023-01-22T22:51:44.370Z,1.30
2023-01-22T22:54:17.579Z,1.30
2023-01-22T22:56:46.653Z,1.30
2023-01-22T22:59:15.697Z,1.30
2023-01-22T23:01:44.469Z,1.30
2023-01-22T23:04:14.690Z,1.30
2023-01-22T23:06:47.526Z,1.30
2023-01-22T23:09:20.196Z,1.20
2023-01-22T23:11:56.277Z,1.30
2023-01-22T23:14:24.799Z,1.30
2023-01-22T23:16:54.663Z,1.30
2023-01-22T23:19:26.660Z,1.30
2023-01-22T23:21:57.817Z,1.30
2023-01-22T23:24:29.054Z,1.20
2023-01-22T23:26:57.611Z,1.30
2023-01-22T23:29:27.532Z,1.30
2023-01-22T23:31:56.880Z,1.30
2023-01-22T23:34:25.176Z,1.30
2023-01-22T23:36:54.437Z,1.20
2023-01-22T23:39:23.346Z,1.20
2023-01-22T23:41:53.396Z,1.20
2023-01-22T23:44:22.063Z,1.20
2023-01-22T23:46:52.978Z,1.20
2023-01-22T23:49:27.838Z,1.20
2023-01-22T23:51:55.954Z,1.10
2023-01-22T23:54:24.571Z,1.10
2023-01-22T23:56:54.521Z,1.10
2023-01-22T23:59:24.160Z,1.10
